sensor_id;sensor_type;location;lat;lon;timestamp;temperature;humidity
36450;DHT22;22475;51.390;7.180;2023-07-02T00:01:34;20.60;92.00
36450;DHT22;22475;51.390;7.180;2023-07-02T00:04:01;20.50;91.90
36450;DHT22;22475;51.390;7.180;2023-07-02T00:06:28;20.50;92.00
36450;DHT22;22475;51.390;7.180;2023-07-02T00:08:57;20.50;91.90
36450;DHT22;22475;51.390;7.180;2023-07-02T00:11:26;20.50;91.90
36450;DHT22;22475;51.390;7.180;2023-07-02T00:13:52;20.50;91.90
36450;DHT22;22475;51.390;7.180;2023-07-02T00:16:19;20.50;91.90
36450;DHT22;22475;51.390;7.180;2023-07-02T00:18:46;20.50;91.90
36450;DHT22;22475;51.390;7.180;2023-07-02T00:21:18;20.50;91.90
36450;DHT22;22475;51.390;7.180;2023-07-02T00:23:46;20.50;91.90
36450;DHT22;22475;51.390;7.180;2023-07-02T00:26:12;20.50;91.90
36450;DHT22;22475;51.390;7.180;2023-07-02T00:28:40;20.50;91.90
36450;DHT22;22475;51.390;7.180;2023-07-02T00:31:07;20.50;91.90
36450;DHT22;22475;51.390;7.180;2023-07-02T00:33:34;20.50;91.90
36450;DHT22;22475;51.390;7.180;2023-07-02T00:36:01;20.50;91.90
36450;DHT22;22475;51.390;7.180;2023-07-02T00:38:28;20.50;91.90
36450;DHT22;22475;51.390;7.180;2023-07-02T00:40:54;20.50;91.90
36450;DHT22;22475;51.390;7.180;2023-07-02T00:43:21;20.50;91.90
36450;DHT22;22475;51.390;7.180;2023-07-02T00:45:49;20.50;91.90
36450;DHT22;22475;51.390;7.180;2023-07-02T00:48:16;20.50;91.90
36450;DHT22;22475;51.390;7.180;2023-07-02T00:50:43;20.50;91.90
36450;DHT22;22475;51.390;7.180;2023-07-02T00:53:10;20.50;91.90
36450;DHT22;22475;51.390;7.180;2023-07-02T00:55:37;20.50;91.90
36450;DHT22;22475;51.390;7.180;2023-07-02T00:58:03;20.50;91.90
36450;DHT22;22475;51.390;7.180;2023-07-02T01:00:30;20.50;91.90
36450;DHT22;22475;51.390;7.180;2023-07-02T01:02:58;20.50;91.90
36450;DHT22;22475;51.390;7.180;2023-07-02T01:05:25;20.50;91.90
36450;DHT22;22475;51.390;7.180;2023-07-02T01:08:01;20.50;91.90
36450;DHT22;22475;51.390;7.180;2023-07-02T01:10:28;20.50;91.90
36450;DHT22;22475;51.390;7.180;2023-07-02T01:12:57;20.50;91.80
36450;DHT22;22475;51.390;7.180;2023-07-02T01:15:25;20.50;91.80
36450;DHT22;22475;51.390;7.180;2023-07-02T01:17:53;20.50;91.80
36450;DHT22;22475;51.390;7.180;2023-07-02T01:20:22;20.50;91.90
36450;DHT22;22475;51.390;7.180;2023-07-02T01:22:48;20.50;91.90
36450;DHT22;22475;51.390;7.180;2023-07-02T01:25:17;20.50;91.90
36450;DHT22;22475;51.390;7.180;2023-07-02T01:27:44;20.50;91.90
36450;DHT22;22475;51.390;7.180;2023-07-02T01:30:11;20.50;91.90
36450;DHT22;22475;51.390;7.180;2023-07-02T01:32:38;20.50;91.90
36450;DHT22;22475;51.390;7.180;2023-07-02T01:35:06;20.50;91.90
36450;DHT22;22475;51.390;7.180;2023-07-02T01:37:34;20.50;91.90
36450;DHT22;22475;51.390;7.180;2023-07-02T01:40:03;20.50;91.90
36450;DHT22;22475;51.390;7.180;2023-07-02T01:42:31;20.50;91.90
36450;DHT22;22475;51.390;7.180;2023-07-02T01:44:59;20.50;91.80
36450;DHT22;22475;51.390;7.180;2023-07-02T01:47:25;20.50;91.80
36450;DHT22;22475;51.390;7.180;2023-07-02T01:49:52;20.50;91.80
36450;DHT22;22475;51.390;7.180;2023-07-02T01:52:19;20.50;91.80
36450;DHT22;22475;51.390;7.180;2023-07-02T01:54:47;20.50;91.70
36450;DHT22;22475;51.390;7.180;2023-07-02T01:57:14;20.50;91.70
36450;DHT22;22475;51.390;7.180;2023-07-02T01:59:41;20.50;91.70
36450;DHT22;22475;51.390;7.180;2023-07-02T02:02:08;20.40;91.70
36450;DHT22;22475;51.390;7.180;2023-07-02T02:04:34;20.50;91.60
36450;DHT22;22475;51.390;7.180;2023-07-02T02:07:01;20.40;91.60
36450;DHT22;22475;51.390;7.180;2023-07-02T02:09:28;20.50;91.60
36450;DHT22;22475;51.390;7.180;2023-07-02T02:11:59;20.40;91.60
36450;DHT22;22475;51.390;7.180;2023-07-02T02:14:25;20.40;91.50
36450;DHT22;22475;51.390;7.180;2023-07-02T02:16:52;20.50;91.50
36450;DHT22;22475;51.390;7.180;2023-07-02T02:19:19;20.40;91.50
36450;DHT22;22475;51.390;7.180;2023-07-02T02:21:46;20.40;91.60
36450;DHT22;22475;51.390;7.180;2023-07-02T02:24:12;20.40;91.60
36450;DHT22;22475;51.390;7.180;2023-07-02T02:26:39;20.40;91.60
36450;DHT22;22475;51.390;7.180;2023-07-02T02:29:07;20.40;91.60
36450;DHT22;22475;51.390;7.180;2023-07-02T02:31:34;20.40;91.60
36450;DHT22;22475;51.390;7.180;2023-07-02T02:34:01;20.40;91.60
36450;DHT22;22475;51.390;7.180;2023-07-02T02:36:27;20.40;91.70
36450;DHT22;22475;51.390;7.180;2023-07-02T02:38:54;20.40;91.60
36450;DHT22;22475;51.390;7.180;2023-07-02T02:41:21;20.40;91.60
36450;DHT22;22475;51.390;7.180;2023-07-02T02:43:48;20.40;91.40
36450;DHT22;22475;51.390;7.180;2023-07-02T02:46:21;20.40;91.40
36450;DHT22;22475;51.390;7.180;2023-07-02T02:48:48;20.40;91.30
36450;DHT22;22475;51.390;7.180;2023-07-02T02:51:14;20.40;91.40
36450;DHT22;22475;51.390;7.180;2023-07-02T02:53:41;20.40;91.40
36450;DHT22;22475;51.390;7.180;2023-07-02T02:56:08;20.40;91.40
36450;DHT22;22475;51.390;7.180;2023-07-02T02:58:35;20.40;91.40
36450;DHT22;22475;51.390;7.180;2023-07-02T03:01:01;20.40;91.30
36450;DHT22;22475;51.390;7.180;2023-07-02T03:03:30;20.40;91.30
36450;DHT22;22475;51.390;7.180;2023-07-02T03:05:59;20.30;91.20
36450;DHT22;22475;51.390;7.180;2023-07-02T03:08:26;20.30;91.20
36450;DHT22;22475;51.390;7.180;2023-07-02T03:10:53;20.30;91.20
36450;DHT22;22475;51.390;7.180;2023-07-02T03:13:20;20.30;91.10
36450;DHT22;22475;51.390;7.180;2023-07-02T03:15:47;20.30;91.00
36450;DHT22;22475;51.390;7.180;2023-07-02T03:18:13;20.30;91.10
36450;DHT22;22475;51.390;7.180;2023-07-02T03:20:41;20.30;91.20
36450;DHT22;22475;51.390;7.180;2023-07-02T03:23:08;20.30;91.30
36450;DHT22;22475;51.390;7.180;2023-07-02T03:25:35;20.30;91.30
36450;DHT22;22475;51.390;7.180;2023-07-02T03:28:02;20.40;91.40
36450;DHT22;22475;51.390;7.180;2023-07-02T03:30:28;20.30;91.40
36450;DHT22;22475;51.390;7.180;2023-07-02T03:32:55;20.40;91.40
36450;DHT22;22475;51.390;7.180;2023-07-02T03:35:22;20.40;91.30
36450;DHT22;22475;51.390;7.180;2023-07-02T03:37:50;20.40;91.20
36450;DHT22;22475;51.390;7.180;2023-07-02T03:40:17;20.30;91.10
36450;DHT22;22475;51.390;7.180;2023-07-02T03:42:43;20.30;91.00
36450;DHT22;22475;51.390;7.180;2023-07-02T03:45:10;20.30;91.00
36450;DHT22;22475;51.390;7.180;2023-07-02T03:47:37;20.40;91.10
36450;DHT22;22475;51.390;7.180;2023-07-02T03:50:04;20.30;91.10
36450;DHT22;22475;51.390;7.180;2023-07-02T03:52:31;20.30;91.10
36450;DHT22;22475;51.390;7.180;2023-07-02T03:54:59;20.30;91.20
36450;DHT22;22475;51.390;7.180;2023-07-02T03:57:26;20.30;91.20
36450;DHT22;22475;51.390;7.180;2023-07-02T03:59:53;20.30;91.20
36450;DHT22;22475;51.390;7.180;2023-07-02T04:02:20;20.30;91.20
36450;DHT22;22475;51.390;7.180;2023-07-02T04:04:46;20.30;91.30
36450;DHT22;22475;51.390;7.180;2023-07-02T04:07:13;20.30;91.30
36450;DHT22;22475;51.390;7.180;2023-07-02T04:09:41;20.30;91.40
36450;DHT22;22475;51.390;7.180;2023-07-02T04:12:09;20.30;91.30
36450;DHT22;22475;51.390;7.180;2023-07-02T04:14:36;20.30;91.30
36450;DHT22;22475;51.390;7.180;2023-07-02T04:17:03;20.30;91.30
36450;DHT22;22475;51.390;7.180;2023-07-02T04:19:30;20.30;91.30
36450;DHT22;22475;51.390;7.180;2023-07-02T04:21:57;20.30;91.30
36450;DHT22;22475;51.390;7.180;2023-07-02T04:24:24;20.30;91.30
36450;DHT22;22475;51.390;7.180;2023-07-02T04:26:52;20.30;91.30
36450;DHT22;22475;51.390;7.180;2023-07-02T04:29:20;20.30;91.30
36450;DHT22;22475;51.390;7.180;2023-07-02T04:31:47;20.30;91.30
36450;DHT22;22475;51.390;7.180;2023-07-02T04:34:13;20.30;91.40
36450;DHT22;22475;51.390;7.180;2023-07-02T04:36:40;20.30;91.40
36450;DHT22;22475;51.390;7.180;2023-07-02T04:39:08;20.30;91.40
36450;DHT22;22475;51.390;7.180;2023-07-02T04:41:36;20.30;91.40
36450;DHT22;22475;51.390;7.180;2023-07-02T04:44:03;20.30;91.40
36450;DHT22;22475;51.390;7.180;2023-07-02T04:46:31;20.30;91.70
36450;DHT22;22475;51.390;7.180;2023-07-02T04:48:58;20.30;91.40
36450;DHT22;22475;51.390;7.180;2023-07-02T04:51:24;20.30;91.40
36450;DHT22;22475;51.390;7.180;2023-07-02T04:53:51;20.30;91.40
36450;DHT22;22475;51.390;7.180;2023-07-02T04:56:18;20.30;91.50
36450;DHT22;22475;51.390;7.180;2023-07-02T04:58:45;20.30;91.40
36450;DHT22;22475;51.390;7.180;2023-07-02T05:01:11;20.30;91.30
36450;DHT22;22475;51.390;7.180;2023-07-02T05:03:39;20.30;91.10
36450;DHT22;22475;51.390;7.180;2023-07-02T05:06:06;20.30;91.10
36450;DHT22;22475;51.390;7.180;2023-07-02T05:08:33;20.20;91.10
36450;DHT22;22475;51.390;7.180;2023-07-02T05:11:00;20.20;91.10
36450;DHT22;22475;51.390;7.180;2023-07-02T05:13:26;20.30;91.20
36450;DHT22;22475;51.390;7.180;2023-07-02T05:15:53;20.30;91.20
36450;DHT22;22475;51.390;7.180;2023-07-02T05:18:20;20.30;91.30
36450;DHT22;22475;51.390;7.180;2023-07-02T05:20:48;20.30;91.30
36450;DHT22;22475;51.390;7.180;2023-07-02T05:23:15;20.30;91.70
36450;DHT22;22475;51.390;7.180;2023-07-02T05:25:41;20.30;91.30
36450;DHT22;22475;51.390;7.180;2023-07-02T05:28:08;20.30;91.30
36450;DHT22;22475;51.390;7.180;2023-07-02T05:30:35;20.30;91.30
36450;DHT22;22475;51.390;7.180;2023-07-02T05:33:02;20.30;91.30
36450;DHT22;22475;51.390;7.180;2023-07-02T05:35:28;20.20;91.20
36450;DHT22;22475;51.390;7.180;2023-07-02T05:37:56;20.30;91.20
36450;DHT22;22475;51.390;7.180;2023-07-02T05:40:23;20.30;91.30
36450;DHT22;22475;51.390;7.180;2023-07-02T05:42:50;20.30;91.30
36450;DHT22;22475;51.390;7.180;2023-07-02T05:45:16;20.30;91.20
36450;DHT22;22475;51.390;7.180;2023-07-02T05:47:43;20.30;91.30
36450;DHT22;22475;51.390;7.180;2023-07-02T05:50:10;20.30;91.30
36450;DHT22;22475;51.390;7.180;2023-07-02T05:52:37;20.30;91.30
36450;DHT22;22475;51.390;7.180;2023-07-02T05:55:08;20.30;91.20
36450;DHT22;22475;51.390;7.180;2023-07-02T05:57:35;20.30;91.20
36450;DHT22;22475;51.390;7.180;2023-07-02T06:00:05;20.30;91.20
36450;DHT22;22475;51.390;7.180;2023-07-02T06:02:32;20.30;91.20
36450;DHT22;22475;51.390;7.180;2023-07-02T06:04:59;20.30;91.20
36450;DHT22;22475;51.390;7.180;2023-07-02T06:07:27;20.20;91.20
36450;DHT22;22475;51.390;7.180;2023-07-02T06:09:54;20.30;91.20
36450;DHT22;22475;51.390;7.180;2023-07-02T06:12:23;20.30;91.20
36450;DHT22;22475;51.390;7.180;2023-07-02T06:14:49;20.30;91.30
36450;DHT22;22475;51.390;7.180;2023-07-02T06:17:16;20.30;91.30
36450;DHT22;22475;51.390;7.180;2023-07-02T06:19:44;20.30;91.30
36450;DHT22;22475;51.390;7.180;2023-07-02T06:22:12;20.30;91.20
36450;DHT22;22475;51.390;7.180;2023-07-02T06:24:39;20.30;91.10
36450;DHT22;22475;51.390;7.180;2023-07-02T06:27:05;20.30;91.10
36450;DHT22;22475;51.390;7.180;2023-07-02T06:29:34;20.30;91.10
36450;DHT22;22475;51.390;7.180;2023-07-02T06:32:00;20.30;91.00
36450;DHT22;22475;51.390;7.180;2023-07-02T06:34:27;20.20;90.90
36450;DHT22;22475;51.390;7.180;2023-07-02T06:36:54;20.30;90.90
36450;DHT22;22475;51.390;7.180;2023-07-02T06:39:20;20.20;90.80
36450;DHT22;22475;51.390;7.180;2023-07-02T06:41:47;20.20;90.70
36450;DHT22;22475;51.390;7.180;2023-07-02T06:44:14;20.30;90.70
36450;DHT22;22475;51.390;7.180;2023-07-02T06:46:45;20.20;90.70
36450;DHT22;22475;51.390;7.180;2023-07-02T06:49:11;20.30;90.80
36450;DHT22;22475;51.390;7.180;2023-07-02T06:51:38;20.30;90.90
36450;DHT22;22475;51.390;7.180;2023-07-02T06:54:05;20.20;90.80
36450;DHT22;22475;51.390;7.180;2023-07-02T06:56:32;20.30;90.90
36450;DHT22;22475;51.390;7.180;2023-07-02T06:58:59;20.30;90.90
36450;DHT22;22475;51.390;7.180;2023-07-02T07:01:26;20.30;90.90
36450;DHT22;22475;51.390;7.180;2023-07-02T07:03:54;20.30;90.70
36450;DHT22;22475;51.390;7.180;2023-07-02T07:06:21;20.30;90.80
36450;DHT22;22475;51.390;7.180;2023-07-02T07:08:47;20.30;90.70
36450;DHT22;22475;51.390;7.180;2023-07-02T07:11:14;20.30;90.80
36450;DHT22;22475;51.390;7.180;2023-07-02T07:13:41;20.20;90.80
36450;DHT22;22475;51.390;7.180;2023-07-02T07:16:09;20.20;90.80
36450;DHT22;22475;51.390;7.180;2023-07-02T07:18:35;20.30;90.80
36450;DHT22;22475;51.390;7.180;2023-07-02T07:21:04;20.30;90.80
36450;DHT22;22475;51.390;7.180;2023-07-02T07:23:30;20.30;90.70
36450;DHT22;22475;51.390;7.180;2023-07-02T07:25:57;20.30;90.60
36450;DHT22;22475;51.390;7.180;2023-07-02T07:28:24;20.30;90.50
36450;DHT22;22475;51.390;7.180;2023-07-02T07:30:51;20.30;90.60
36450;DHT22;22475;51.390;7.180;2023-07-02T07:33:17;20.30;90.50
36450;DHT22;22475;51.390;7.180;2023-07-02T07:35:44;20.30;90.20
36450;DHT22;22475;51.390;7.180;2023-07-02T07:38:14;20.30;90.20
36450;DHT22;22475;51.390;7.180;2023-07-02T07:40:41;20.30;90.40
36450;DHT22;22475;51.390;7.180;2023-07-02T07:43:07;20.30;90.40
36450;DHT22;22475;51.390;7.180;2023-07-02T07:45:34;20.30;90.30
36450;DHT22;22475;51.390;7.180;2023-07-02T07:48:01;20.30;90.30
36450;DHT22;22475;51.390;7.180;2023-07-02T07:50:28;20.30;90.20
36450;DHT22;22475;51.390;7.180;2023-07-02T07:52:55;20.30;90.30
36450;DHT22;22475;51.390;7.180;2023-07-02T07:55:23;20.30;90.40
36450;DHT22;22475;51.390;7.180;2023-07-02T07:57:50;20.30;90.60
36450;DHT22;22475;51.390;7.180;2023-07-02T08:00:17;20.30;90.40
36450;DHT22;22475;51.390;7.180;2023-07-02T08:02:45;20.30;90.20
36450;DHT22;22475;51.390;7.180;2023-07-02T08:05:12;20.30;89.90
36450;DHT22;22475;51.390;7.180;2023-07-02T08:07:39;20.30;89.50
36450;DHT22;22475;51.390;7.180;2023-07-02T08:10:07;20.30;89.50
36450;DHT22;22475;51.390;7.180;2023-07-02T08:12:35;20.30;89.50
36450;DHT22;22475;51.390;7.180;2023-07-02T08:15:02;20.30;89.70
36450;DHT22;22475;51.390;7.180;2023-07-02T08:17:29;20.30;90.00
36450;DHT22;22475;51.390;7.180;2023-07-02T08:19:56;20.30;90.10
36450;DHT22;22475;51.390;7.180;2023-07-02T08:22:23;20.30;90.20
36450;DHT22;22475;51.390;7.180;2023-07-02T08:24:50;20.30;90.30
36450;DHT22;22475;51.390;7.180;2023-07-02T08:27:16;20.30;90.40
36450;DHT22;22475;51.390;7.180;2023-07-02T08:29:46;20.30;90.30
36450;DHT22;22475;51.390;7.180;2023-07-02T08:32:13;20.30;90.30
36450;DHT22;22475;51.390;7.180;2023-07-02T08:34:40;20.30;90.30
36450;DHT22;22475;51.390;7.180;2023-07-02T08:37:06;20.30;90.30
36450;DHT22;22475;51.390;7.180;2023-07-02T08:39:33;20.30;90.20
36450;DHT22;22475;51.390;7.180;2023-07-02T08:42:01;20.30;90.30
36450;DHT22;22475;51.390;7.180;2023-07-02T08:44:28;20.30;90.30
36450;DHT22;22475;51.390;7.180;2023-07-02T08:46:56;20.30;90.20
36450;DHT22;22475;51.390;7.180;2023-07-02T08:49:23;20.30;90.20
36450;DHT22;22475;51.390;7.180;2023-07-02T08:51:49;20.30;90.20
36450;DHT22;22475;51.390;7.180;2023-07-02T08:54:17;20.30;90.10
36450;DHT22;22475;51.390;7.180;2023-07-02T08:56:45;20.30;90.00
36450;DHT22;22475;51.390;7.180;2023-07-02T08:59:12;20.30;89.50
36450;DHT22;22475;51.390;7.180;2023-07-02T09:01:45;20.30;89.50
36450;DHT22;22475;51.390;7.180;2023-07-02T09:04:18;20.30;89.10
36450;DHT22;22475;51.390;7.180;2023-07-02T09:09:12;20.30;89.30
36450;DHT22;22475;51.390;7.180;2023-07-02T09:11:48;20.30;89.20
36450;DHT22;22475;51.390;7.180;2023-07-02T09:14:26;20.30;88.40
36450;DHT22;22475;51.390;7.180;2023-07-02T09:17:04;20.30;87.60
36450;DHT22;22475;51.390;7.180;2023-07-02T09:19:33;20.30;87.50
36450;DHT22;22475;51.390;7.180;2023-07-02T09:22:01;20.30;87.70
36450;DHT22;22475;51.390;7.180;2023-07-02T09:24:29;20.30;88.20
36450;DHT22;22475;51.390;7.180;2023-07-02T09:26:57;20.30;88.40
36450;DHT22;22475;51.390;7.180;2023-07-02T09:29:26;20.30;89.40
36450;DHT22;22475;51.390;7.180;2023-07-02T09:31:54;20.30;88.60
36450;DHT22;22475;51.390;7.180;2023-07-02T09:34:27;20.30;88.70
36450;DHT22;22475;51.390;7.180;2023-07-02T09:36:56;20.30;88.80
36450;DHT22;22475;51.390;7.180;2023-07-02T09:39:26;20.30;89.00
36450;DHT22;22475;51.390;7.180;2023-07-02T09:41:53;20.40;88.90
36450;DHT22;22475;51.390;7.180;2023-07-02T09:44:21;20.40;88.70
36450;DHT22;22475;51.390;7.180;2023-07-02T09:46:53;20.30;88.40
36450;DHT22;22475;51.390;7.180;2023-07-02T09:49:20;20.40;88.60
36450;DHT22;22475;51.390;7.180;2023-07-02T09:51:49;20.40;88.90
36450;DHT22;22475;51.390;7.180;2023-07-02T09:54:18;20.40;89.00
36450;DHT22;22475;51.390;7.180;2023-07-02T09:56:46;20.40;89.10
36450;DHT22;22475;51.390;7.180;2023-07-02T09:59:13;20.30;89.90
36450;DHT22;22475;51.390;7.180;2023-07-02T10:01:40;20.30;89.30
36450;DHT22;22475;51.390;7.180;2023-07-02T10:04:13;20.40;89.30
36450;DHT22;22475;51.390;7.180;2023-07-02T10:06:47;20.30;89.20
36450;DHT22;22475;51.390;7.180;2023-07-02T10:09:15;20.30;89.10
36450;DHT22;22475;51.390;7.180;2023-07-02T10:11:44;20.40;89.20
36450;DHT22;22475;51.390;7.180;2023-07-02T10:14:10;20.30;89.20
36450;DHT22;22475;51.390;7.180;2023-07-02T10:16:50;20.40;89.40
36450;DHT22;22475;51.390;7.180;2023-07-02T10:19:17;20.30;89.40
36450;DHT22;22475;51.390;7.180;2023-07-02T10:21:44;20.30;89.50
36450;DHT22;22475;51.390;7.180;2023-07-02T10:24:12;20.30;89.70
36450;DHT22;22475;51.390;7.180;2023-07-02T10:26:51;20.30;89.70
36450;DHT22;22475;51.390;7.180;2023-07-02T10:29:19;20.30;89.60
36450;DHT22;22475;51.390;7.180;2023-07-02T10:31:48;20.30;89.70
36450;DHT22;22475;51.390;7.180;2023-07-02T10:34:15;20.40;89.50
36450;DHT22;22475;51.390;7.180;2023-07-02T10:36:42;20.30;89.10
36450;DHT22;22475;51.390;7.180;2023-07-02T10:39:09;20.30;89.10
36450;DHT22;22475;51.390;7.180;2023-07-02T10:41:35;20.30;89.00
36450;DHT22;22475;51.390;7.180;2023-07-02T10:44:08;20.40;89.20
36450;DHT22;22475;51.390;7.180;2023-07-02T10:46:43;20.30;88.90
36450;DHT22;22475;51.390;7.180;2023-07-02T10:49:10;20.40;89.10
36450;DHT22;22475;51.390;7.180;2023-07-02T10:51:37;20.40;89.10
36450;DHT22;22475;51.390;7.180;2023-07-02T10:54:04;20.30;89.10
36450;DHT22;22475;51.390;7.180;2023-07-02T10:56:32;20.30;89.20
36450;DHT22;22475;51.390;7.180;2023-07-02T10:58:58;20.40;90.10
36450;DHT22;22475;51.390;7.180;2023-07-02T11:01:28;20.30;89.60
36450;DHT22;22475;51.390;7.180;2023-07-02T11:03:59;20.30;89.70
36450;DHT22;22475;51.390;7.180;2023-07-02T11:06:27;20.30;89.80
36450;DHT22;22475;51.390;7.180;2023-07-02T11:08:54;20.30;89.60
36450;DHT22;22475;51.390;7.180;2023-07-02T11:11:22;20.40;89.40
36450;DHT22;22475;51.390;7.180;2023-07-02T11:13:50;20.30;89.30
36450;DHT22;22475;51.390;7.180;2023-07-02T11:16:19;20.40;89.40
36450;DHT22;22475;51.390;7.180;2023-07-02T11:18:49;20.40;89.50
36450;DHT22;22475;51.390;7.180;2023-07-02T11:21:16;20.30;89.50
36450;DHT22;22475;51.390;7.180;2023-07-02T11:23:43;20.30;89.70
36450;DHT22;22475;51.390;7.180;2023-07-02T11:26:09;20.40;89.90
36450;DHT22;22475;51.390;7.180;2023-07-02T11:28:47;20.30;90.00
36450;DHT22;22475;51.390;7.180;2023-07-02T11:31:24;20.30;90.10
36450;DHT22;22475;51.390;7.180;2023-07-02T11:33:52;20.30;89.50
36450;DHT22;22475;51.390;7.180;2023-07-02T11:36:20;20.30;89.10
36450;DHT22;22475;51.390;7.180;2023-07-02T11:38:48;20.30;89.30
36450;DHT22;22475;51.390;7.180;2023-07-02T11:41:15;20.30;89.30
36450;DHT22;22475;51.390;7.180;2023-07-02T11:43:42;20.30;89.50
36450;DHT22;22475;51.390;7.180;2023-07-02T11:46:08;20.30;89.80
36450;DHT22;22475;51.390;7.180;2023-07-02T11:48:35;20.30;90.00
36450;DHT22;22475;51.390;7.180;2023-07-02T11:51:03;20.30;90.10
36450;DHT22;22475;51.390;7.180;2023-07-02T11:53:30;20.40;90.20
36450;DHT22;22475;51.390;7.180;2023-07-02T11:55:57;20.30;90.20
36450;DHT22;22475;51.390;7.180;2023-07-02T11:58:24;20.30;90.30
36450;DHT22;22475;51.390;7.180;2023-07-02T12:00:51;20.30;90.30
36450;DHT22;22475;51.390;7.180;2023-07-02T12:03:17;20.40;90.40
36450;DHT22;22475;51.390;7.180;2023-07-02T12:05:44;20.40;90.40
36450;DHT22;22475;51.390;7.180;2023-07-02T12:08:13;20.40;90.40
36450;DHT22;22475;51.390;7.180;2023-07-02T12:10:40;20.40;90.50
36450;DHT22;22475;51.390;7.180;2023-07-02T12:13:07;20.40;90.50
36450;DHT22;22475;51.390;7.180;2023-07-02T12:15:33;20.40;90.90
36450;DHT22;22475;51.390;7.180;2023-07-02T12:18:00;20.40;90.50
36450;DHT22;22475;51.390;7.180;2023-07-02T12:20:27;20.40;90.50
36450;DHT22;22475;51.390;7.180;2023-07-02T12:22:54;20.40;90.50
36450;DHT22;22475;51.390;7.180;2023-07-02T12:25:22;20.40;90.60
36450;DHT22;22475;51.390;7.180;2023-07-02T12:27:49;20.40;90.60
36450;DHT22;22475;51.390;7.180;2023-07-02T12:30:15;20.40;90.60
36450;DHT22;22475;51.390;7.180;2023-07-02T12:32:42;20.40;90.60
36450;DHT22;22475;51.390;7.180;2023-07-02T12:35:09;20.40;90.50
36450;DHT22;22475;51.390;7.180;2023-07-02T12:37:43;20.40;90.60
36450;DHT22;22475;51.390;7.180;2023-07-02T12:40:11;20.40;90.60
36450;DHT22;22475;51.390;7.180;2023-07-02T12:42:40;20.40;90.60
36450;DHT22;22475;51.390;7.180;2023-07-02T12:45:08;20.40;90.60
36450;DHT22;22475;51.390;7.180;2023-07-02T12:47:35;20.40;90.60
36450;DHT22;22475;51.390;7.180;2023-07-02T12:50:02;20.40;90.60
36450;DHT22;22475;51.390;7.180;2023-07-02T12:52:29;20.40;90.60
36450;DHT22;22475;51.390;7.180;2023-07-02T12:54:56;20.40;90.60
36450;DHT22;22475;51.390;7.180;2023-07-02T12:57:22;20.40;90.70
36450;DHT22;22475;51.390;7.180;2023-07-02T12:59:51;20.40;90.70
36450;DHT22;22475;51.390;7.180;2023-07-02T13:02:17;20.40;90.70
36450;DHT22;22475;51.390;7.180;2023-07-02T13:04:45;20.40;90.60
36450;DHT22;22475;51.390;7.180;2023-07-02T13:07:11;20.40;90.40
36450;DHT22;22475;51.390;7.180;2023-07-02T13:09:38;20.40;90.50
36450;DHT22;22475;51.390;7.180;2023-07-02T13:12:05;20.40;90.50
36450;DHT22;22475;51.390;7.180;2023-07-02T13:14:34;20.40;90.60
36450;DHT22;22475;51.390;7.180;2023-07-02T13:17:02;20.40;90.60
36450;DHT22;22475;51.390;7.180;2023-07-02T13:19:30;20.40;90.60
36450;DHT22;22475;51.390;7.180;2023-07-02T13:21:57;20.40;90.70
36450;DHT22;22475;51.390;7.180;2023-07-02T13:24:24;20.40;90.70
36450;DHT22;22475;51.390;7.180;2023-07-02T13:26:51;20.40;90.70
36450;DHT22;22475;51.390;7.180;2023-07-02T13:29:18;20.50;90.70
36450;DHT22;22475;51.390;7.180;2023-07-02T13:31:44;20.40;90.80
36450;DHT22;22475;51.390;7.180;2023-07-02T13:34:13;20.40;90.70
36450;DHT22;22475;51.390;7.180;2023-07-02T13:36:39;20.40;90.70
36450;DHT22;22475;51.390;7.180;2023-07-02T13:39:06;20.40;90.70
36450;DHT22;22475;51.390;7.180;2023-07-02T13:41:33;20.40;90.70
36450;DHT22;22475;51.390;7.180;2023-07-02T13:44:00;20.40;90.60
36450;DHT22;22475;51.390;7.180;2023-07-02T13:46:27;20.40;90.60
36450;DHT22;22475;51.390;7.180;2023-07-02T13:48:54;20.40;90.70
36450;DHT22;22475;51.390;7.180;2023-07-02T13:51:22;20.40;90.60
36450;DHT22;22475;51.390;7.180;2023-07-02T13:53:48;20.40;90.70
36450;DHT22;22475;51.390;7.180;2023-07-02T13:56:15;20.40;90.70
36450;DHT22;22475;51.390;7.180;2023-07-02T13:59:03;20.40;90.70
36450;DHT22;22475;51.390;7.180;2023-07-02T14:01:30;20.50;90.80
36450;DHT22;22475;51.390;7.180;2023-07-02T14:03:57;20.40;90.70
36450;DHT22;22475;51.390;7.180;2023-07-02T14:06:24;20.40;90.70
36450;DHT22;22475;51.390;7.180;2023-07-02T14:08:51;20.50;90.80
36450;DHT22;22475;51.390;7.180;2023-07-02T14:11:18;20.40;90.70
36450;DHT22;22475;51.390;7.180;2023-07-02T14:13:45;20.50;90.60
36450;DHT22;22475;51.390;7.180;2023-07-02T14:16:13;20.40;90.70
36450;DHT22;22475;51.390;7.180;2023-07-02T14:18:40;20.40;90.70
36450;DHT22;22475;51.390;7.180;2023-07-02T14:21:07;20.40;90.60
36450;DHT22;22475;51.390;7.180;2023-07-02T14:23:33;20.40;90.70
36450;DHT22;22475;51.390;7.180;2023-07-02T14:26:00;20.40;90.60
36450;DHT22;22475;51.390;7.180;2023-07-02T14:28:27;20.40;90.60
36450;DHT22;22475;51.390;7.180;2023-07-02T14:30:58;20.40;90.60
36450;DHT22;22475;51.390;7.180;2023-07-02T14:33:28;20.40;90.60
36450;DHT22;22475;51.390;7.180;2023-07-02T14:35:57;20.50;90.60
36450;DHT22;22475;51.390;7.180;2023-07-02T14:38:24;20.40;90.50
36450;DHT22;22475;51.390;7.180;2023-07-02T14:40:52;20.50;90.60
36450;DHT22;22475;51.390;7.180;2023-07-02T14:43:20;20.40;90.50
36450;DHT22;22475;51.390;7.180;2023-07-02T14:45:50;20.40;90.50
36450;DHT22;22475;51.390;7.180;2023-07-02T14:48:17;20.40;90.60
36450;DHT22;22475;51.390;7.180;2023-07-02T14:50:49;20.40;90.60
36450;DHT22;22475;51.390;7.180;2023-07-02T14:53:16;20.40;90.50
36450;DHT22;22475;51.390;7.180;2023-07-02T14:55:43;20.40;90.50
36450;DHT22;22475;51.390;7.180;2023-07-02T14:58:11;20.50;90.60
36450;DHT22;22475;51.390;7.180;2023-07-02T15:00:43;20.40;90.60
36450;DHT22;22475;51.390;7.180;2023-07-02T15:03:09;20.40;90.70
36450;DHT22;22475;51.390;7.180;2023-07-02T15:05:36;20.50;90.70
36450;DHT22;22475;51.390;7.180;2023-07-02T15:08:04;20.40;90.70
36450;DHT22;22475;51.390;7.180;2023-07-02T15:10:31;20.40;90.70
36450;DHT22;22475;51.390;7.180;2023-07-02T15:12:58;20.40;90.70
36450;DHT22;22475;51.390;7.180;2023-07-02T15:15:25;20.50;90.80
36450;DHT22;22475;51.390;7.180;2023-07-02T15:17:51;20.40;90.80
36450;DHT22;22475;51.390;7.180;2023-07-02T15:20:18;20.50;90.80
36450;DHT22;22475;51.390;7.180;2023-07-02T15:22:45;20.40;90.70
36450;DHT22;22475;51.390;7.180;2023-07-02T15:25:13;20.50;90.80
36450;DHT22;22475;51.390;7.180;2023-07-02T15:27:40;20.50;90.80
36450;DHT22;22475;51.390;7.180;2023-07-02T15:30:07;20.50;90.70
36450;DHT22;22475;51.390;7.180;2023-07-02T15:32:34;20.40;90.70
36450;DHT22;22475;51.390;7.180;2023-07-02T15:35:01;20.50;90.70